< < Back
Terminal Aerodrome Forecast


Current Version              Previous Versions:   1  2  3  4  5  6  7  8  9  

Terminal Aerodrome Forecast

974
FTUS42 KCAE 191400 CCA
TAFCAE
TAF COR
KCAE 191455Z 1913/2012 02006KT P6SM SCT250
     FM192300 VRB03KT P6SM FEW250=

Latest METAR

780
SAUS80 KWBC 200300
MTRCAE
METAR KCAE 200256Z 26003KT 10SM CLR 11/08 A3012 RMK AO2 SLP200 T01060083
53008


USA.gov is the U.S. government's official web portal to all federal, state and local government web resources and services.